• Join FlightAware (Why Join?)
  • Login
  • US Flag 
04:04AM EST


 

Airport Tracker/Info


-or-


 

Live Flight TrackerFlight Track Log ✈ CAL260 ✈ 03-Aug-2014 ✈ RCSS / TSA - RKSS / GMP

Flight Track Log - Related Links

Times and Time Zones

All times are in EDT time to prevent confusion due to time zone crossing. See the CAL260 flight status page for this flight to view local times or setup timezone preferences in your user account.

Time Position Orientation Groundspeed Altitude Reporting Facility
EDT Latitude Longitude Course Direction KTS MPH feet Rate Location/Type
09:31PM 25.4625 121.6965 18° North  Level Estimated
09:32PM 25.5607 121.7328 18° North  Level Estimated
09:33PM 25.6590 121.7692 18° North  Level Estimated
09:34PM 25.7572 121.8057 18° North  Level Estimated
09:35PM 25.8554 121.8422 19° North  Level Estimated
09:36PM 25.9536 121.8788 19° North  Level Estimated
09:37PM 26.0518 121.9155 19° North  Level Estimated
09:38PM 26.1500 121.9522 19° North  Level Estimated
09:39PM 26.2482 121.9890 19° North  Level Estimated
09:40PM 26.3464 122.0258 19° North  Level Estimated
09:41PM 26.4445 122.0627 19° North  Level Estimated
09:42PM 26.5427 122.0996 19° North  Level Estimated
09:43PM 26.6408 122.1367 19° North  Level Estimated
09:44PM 26.7390 122.1738 19° North  Level Estimated
09:45PM 26.8371 122.2109 19° North  Level Estimated
09:46PM 26.9352 122.2481 19° North  Level Estimated
09:47PM 27.0333 122.2854 19° North  Level Estimated
09:48PM 27.1314 122.3228 19° North  Level Estimated
09:49PM 27.2295 122.3602 19° North  Level Estimated
09:50PM 27.3275 122.3977 19° North  Level Estimated
09:51PM 27.4256 122.4352 19° North  Level Estimated
09:52PM 27.5237 122.4728 19° North  Level Estimated
09:53PM 27.6217 122.5105 19° North  Level Estimated
09:54PM 27.7197 122.5482 19° North  Level Estimated
09:55PM 27.8178 122.5861 19° North  Level Estimated
09:56PM 27.9158 122.6239 19° North  Level Estimated
09:57PM 28.0138 122.6619 19° North  Level Estimated
09:58PM 28.1118 122.6999 19° North  Level Estimated
09:59PM 28.2097 122.7380 19° North  Level Estimated
10:00PM 28.3077 122.7762 19° North  Level Estimated
10:01PM 28.4057 122.8144 19° North  Level Estimated
10:02PM 28.5036 122.8527 19° North  Level Estimated
10:03PM 28.6015 122.8911 19° North  Level Estimated
10:04PM 28.6995 122.9295 19° North  Level Estimated
10:05PM 28.7974 122.9680 19° North  Level Estimated
10:06PM 28.8953 123.0066 19° North  Level Estimated
10:07PM 28.9932 123.0453 19° North  Level Estimated
10:08PM 29.0911 123.0840 19° North  Level Estimated
10:09PM 29.1889 123.1228 19° North  Level Estimated
10:10PM 29.2868 123.1617 19° North  Level Estimated
10:11PM 29.3847 123.2007 19° North  Level Estimated
10:12PM 29.4825 123.2397 19° North  Level Estimated
10:13PM 29.5803 123.2788 19° North  Level Estimated
10:14PM 29.6781 123.3180 19° North  Level Estimated
10:15PM 29.7759 123.3572 19° North  Level Estimated
10:16PM 29.8737 123.3966 19° North  Level Estimated
10:17PM 29.9715 123.4360 19° North  Level Estimated
10:18PM 30.0693 123.4755 19° North  Level Estimated
10:19PM 30.1670 123.5151 19° North  Level Estimated
10:20PM 30.2648 123.5547 19° North  Level Estimated
10:21PM 30.3625 123.5944 19° North  Level Estimated
10:22PM 30.4603 123.6342 19° North  Level Estimated
10:23PM 30.5579 123.6741 19° North  Level Estimated
10:24PM 30.6556 123.7141 19° North  Level Estimated
10:25PM 30.7533 123.7541 19° North  Level Estimated
10:26PM 30.8510 123.7943 19° North  Level Estimated
10:27PM 30.9487 123.8345 19° North  Level Estimated
10:28PM 31.0463 123.8748 19° North  Level Estimated
10:29PM 31.1439 123.9152 19° North  Level Estimated
10:30PM 31.2416 123.9556 20° North  Level Estimated
10:31PM 31.3392 123.9961 20° North  Level Estimated
10:32PM 31.4368 124.0368 20° North  Level Estimated
10:33PM 31.5344 124.0775 20° North  Level Estimated
10:34PM 31.6319 124.1183 20° North  Level Estimated
10:35PM 31.7295 124.1592 20° North  Level Estimated
10:36PM 31.8270 124.2001 20° North  Level Estimated
10:37PM 31.9246 124.2412 20° North  Level Estimated
10:38PM 32.0221 124.2823 20° North  Level Estimated
10:39PM 32.1196 124.3236 20° North  Level Estimated
10:40PM 32.2171 124.3649 20° North  Level Estimated
10:41PM 32.3146 124.4063 20° North  Level Estimated
10:42PM 32.4120 124.4478 20° North  Level Estimated
10:43PM 32.5095 124.4894 20° North  Level Estimated
10:44PM 32.6069 124.5311 20° North  Level Estimated
10:45PM 32.7043 124.5728 20° North  Level Estimated
10:46PM 32.8018 124.6147 20° North  Level Estimated
10:47PM 32.8991 124.6566 20° North  Level Estimated
10:48PM 32.9965 124.6987 20° North  Level Estimated
10:49PM 33.0939 124.7408 20° North  Level Estimated
10:50PM 33.1912 124.7830 20° North  Level Estimated
10:51PM 33.2886 124.8254 20° North  Level Estimated
10:52PM 33.3859 124.8678 20° North  Level Estimated
10:53PM 33.4832 124.9103 20° North  Level Estimated
10:53PM 34.4719 126.7950 North 511 588 30,900  Level FlightAware ADS-B
10:53PM 34.5583 126.8040 North 505 581 30,300 -963 Descending FlightAware ADS-B
10:54PM 34.6595 126.8149 North 496 571 29,600 -977 Descending FlightAware ADS-B
10:55PM 34.7566 126.8250 North 492 566 28,900 -1,037 Descending FlightAware ADS-B
10:55PM 34.8405 126.8340 North 487 560 28,200 -1,037 Descending FlightAware ADS-B
10:56PM 34.9324 126.8442 North 487 560 27,500 -815 Descending FlightAware ADS-B
10:57PM 35.0256 126.8544 North 501 577 27,100 -375 Descending FlightAware ADS-B
10:57PM 35.1210 126.8650 North 507 583 27,000 -75 Descending FlightAware ADS-B
10:58PM 35.2132 126.8749 North 507 583 27,000  Level FlightAware ADS-B
10:59PM 35.3087 126.8851 North 508 585 27,000  Level FlightAware ADS-B
10:59PM 35.3971 126.8947 North 507 583 27,000  Level FlightAware ADS-B
11:00PM 35.4933 126.9053 North 506 582 27,000  Level FlightAware ADS-B
11:01PM 35.5842 126.9153 North 504 580 27,000 -304 Level FlightAware ADS-B
11:01PM 35.6793 126.9258 North 505 581 26,600 -825 Descending FlightAware ADS-B
11:02PM 35.7712 126.9358 North 500 575 25,900 -1,037 Descending FlightAware ADS-B
11:03PM 35.8635 126.9459 North 492 566 25,200 -1,125 Descending FlightAware ADS-B
11:03PM 35.9554 126.9558 North 486 559 24,400 -1,125 Descending FlightAware ADS-B
11:04PM 36.0445 126.9658 North 483 556 23,700 -1,050 Descending FlightAware ADS-B
11:05PM 36.1319 126.9755 North 471 542 23,000 -1,125 Descending FlightAware ADS-B
11:05PM 36.2109 126.9842 North 466 536 22,200 -1,119 Descending FlightAware ADS-B
11:06PM 36.2574 127.0020 30° Northeast 463 533 21,900 -1,100 Descending FlightAware ADS-B
11:06PM 36.3320 127.0583 31° Northeast 461 531 21,100 -1,111 Descending FlightAware ADS-B
11:07PM 36.4029 127.1119 32° Northeast 452 520 20,400 -1,050 Descending FlightAware ADS-B
11:08PM 36.4723 127.1645 27° Northeast 447 514 19,700 -1,100 Descending FlightAware ADS-B
11:08PM 36.5129 127.1847 16° North 453 521 19,300 -1,050 Descending FlightAware ADS-B
11:08PM 36.5538 127.1943 North 448 516 19,000 -500 Descending FlightAware ADS-B
11:09PM 36.6311 127.2152 21° North 409 471 18,800 -675 Descending FlightAware ADS-B
11:10PM 36.6956 127.2568 31° Northeast 379 436 18,100 -825 Descending FlightAware ADS-B
11:10PM 36.7541 127.3002 31° Northeast 353 406 17,700 -600 Descending FlightAware ADS-B
11:11PM 36.8097 127.3410 30° Northeast 344 396 17,300 -750 Descending FlightAware ADS-B
11:12PM 36.8643 127.3806 30° Northeast 339 390 16,700 -900 Descending FlightAware ADS-B
11:12PM 36.9186 127.4199 30° Northeast 337 388 16,100 -975 Descending FlightAware ADS-B
11:13PM 36.9720 127.4583 30° Northeast 335 386 15,400 -975 Descending FlightAware ADS-B
11:14PM 37.0260 127.4965 29° Northeast 330 380 14,800 -1,000 Descending FlightAware ADS-B
11:14PM 37.0546 127.5093 North 333 383 14,400 -1,050 Descending FlightAware ADS-B
11:14PM 37.0847 127.5050 341° North 338 389 14,100 -750 Descending FlightAware ADS-B
11:15PM 37.1113 127.4828 314° West 339 390 13,900 -800 Descending FlightAware ADS-B
11:15PM 37.1461 127.4201 304° West 325 374 13,300 -675 Descending FlightAware ADS-B
11:16PM 37.1785 127.3600 304° West 311 358 13,000 -525 Descending FlightAware ADS-B
11:17PM 37.2107 127.2998 304° West 308 354 12,600 -375 Descending FlightAware ADS-B
11:17PM 37.2420 127.2422 304° West 305 351 12,500 -75 Descending FlightAware ADS-B
11:18PM 37.2746 127.1824 304° West 309 356 12,500  Level FlightAware ADS-B
11:19PM 37.3063 127.1241 304° West 308 354 12,500 -375 Level FlightAware ADS-B
11:19PM 37.3388 127.0642 305° West 305 351 12,000 -900 Descending FlightAware ADS-B
11:20PM 37.3706 127.0068 305° West 295 339 11,300 -987 Descending FlightAware ADS-B
11:21PM 37.4006 126.9523 304° West 287 330 10,700 -750 Descending FlightAware ADS-B
11:21PM 37.4247 126.8933 292° West 272 313 10,300 -800 Descending FlightAware ADS-B
11:22PM 37.4334 126.8664 292° West 268 308 9,900 -1,200 Descending FlightAware ADS-B
11:22PM 37.4428 126.8369 292° West 267 307 9,500 -1,463 Descending FlightAware ADS-B
11:22PM 37.4524 126.8073 293° West 275 316 8,900 -1,500 Descending FlightAware ADS-B
11:23PM 37.4620 126.7783 292° West 274 315 8,500 -1,200 Descending FlightAware ADS-B
11:23PM 37.4717 126.7483 292° West 268 308 8,100 -1,231 Descending FlightAware ADS-B
11:23PM 37.4800 126.7219 292° West 264 304 7,700 -1,231 Descending FlightAware ADS-B
11:24PM 37.4917 126.6943 309° West 261 300 7,300 -1,317 Descending FlightAware ADS-B
11:24PM 37.5084 126.6725 316° Northwest 262 302 6,800 -1,317 Descending FlightAware ADS-B
11:24PM 37.5266 126.6497 315° West 252 290 6,400 -1,350 Descending FlightAware ADS-B
11:25PM 37.5426 126.6297 315° West 247 284 5,900 -1,200 Descending FlightAware ADS-B
11:25PM 37.5567 126.6121 314° West 240 276 5,600 -1,200 Descending FlightAware ADS-B
11:25PM 37.5720 126.5924 315° West 238 274 5,100 -1,500 Descending FlightAware ADS-B
11:26PM 37.5866 126.5741 317° Northwest 240 276 4,700 -947 Descending FlightAware ADS-B
11:26PM 37.6046 126.5637 North 212 244 4,500 -353 Descending FlightAware ADS-B
11:26PM 37.6186 126.5694 43° Northeast 180 207 4,500  Level FlightAware ADS-B
11:29PM 37.5583 126.7906 109° East  Level Estimated
11:30PM 37.5583 126.7906 North  Level Estimated
11:31PM 37.5583 126.7906 North  Level Estimated
11:32PM 37.5583 126.7906 North  Level Estimated